createdAt,value
2022-09-14T00:00:33.690Z,3.37
2022-09-14T00:03:03.298Z,3.43
2022-09-14T00:05:31.451Z,3.20
2022-09-14T00:07:59.722Z,3.40
2022-09-14T00:10:28.054Z,3.50
2022-09-14T00:12:56.195Z,3.33
2022-09-14T00:15:24.256Z,3.53
2022-09-14T00:17:52.403Z,3.30
2022-09-14T00:20:21.945Z,3.53
2022-09-14T00:22:50.570Z,3.80
2022-09-14T00:25:19.385Z,3.03
2022-09-14T00:27:47.877Z,3.40
2022-09-14T00:30:16.093Z,3.20
2022-09-14T00:32:44.248Z,3.73
2022-09-14T00:35:12.446Z,3.37
2022-09-14T00:37:41.949Z,3.23
2022-09-14T00:40:12.607Z,3.50
2022-09-14T00:42:40.768Z,3.10
2022-09-14T00:45:14.368Z,3.20
2022-09-14T00:47:43.458Z,3.37
2022-09-14T00:50:11.939Z,3.43
2022-09-14T00:52:42.728Z,3.20
2022-09-14T00:55:12.292Z,3.77
2022-09-14T00:57:42.674Z,3.57
2022-09-14T01:00:11.651Z,3.40
2022-09-14T01:02:39.867Z,2.90
2022-09-14T01:05:09.293Z,3.73
2022-09-14T01:08:25.252Z,3.40
2022-09-14T01:11:04.523Z,3.67
2022-09-14T01:13:35.516Z,3.17
2022-09-14T01:16:07.527Z,3.10
2022-09-14T01:18:37.922Z,3.23
2022-09-14T01:21:09.588Z,3.17
2022-09-14T01:23:43.318Z,3.70
2022-09-14T01:26:34.949Z,3.63
2022-09-14T01:29:07.035Z,3.90
2022-09-14T01:31:37.667Z,3.07
2022-09-14T01:34:09.004Z,3.27
2022-09-14T01:36:37.781Z,3.00
2022-09-14T01:39:06.012Z,3.40
2022-09-14T01:41:34.150Z,3.20
2022-09-14T01:44:07.492Z,3.30
2022-09-14T01:46:37.149Z,2.90
2022-09-14T01:49:08.367Z,3.03
2022-09-14T01:51:39.647Z,3.43
2022-09-14T01:54:10.814Z,3.23
2022-09-14T01:56:40.235Z,3.53
2022-09-14T01:59:12.181Z,3.67
2022-09-14T02:01:43.447Z,3.20
2022-09-14T02:04:14.902Z,3.10
2022-09-14T02:06:44.478Z,3.00
2022-09-14T02:09:13.650Z,3.30
2022-09-14T02:11:41.743Z,3.00
2022-09-14T02:14:11.373Z,3.73
2022-09-14T02:16:40.311Z,3.53
2022-09-14T02:19:08.557Z,3.20
2022-09-14T02:21:37.881Z,4.07
2022-09-14T02:24:06.458Z,3.50
2022-09-14T02:26:34.644Z,3.60
2022-09-14T02:29:03.011Z,3.20
2022-09-14T02:31:38.711Z,3.73
2022-09-14T02:34:09.684Z,3.87
2022-09-14T02:36:43.663Z,3.70
2022-09-14T02:39:15.004Z,3.63
2022-09-14T02:41:46.826Z,3.50
2022-09-14T02:44:19.039Z,3.53
2022-09-14T02:46:51.611Z,3.90
2022-09-14T02:49:22.269Z,4.03
2022-09-14T02:51:54.026Z,3.60
2022-09-14T02:54:23.832Z,3.77
2022-09-14T02:56:51.934Z,3.70
2022-09-14T02:59:20.276Z,3.63
2022-09-14T03:01:50.376Z,3.67
2022-09-14T03:04:18.555Z,4.17
2022-09-14T03:06:46.880Z,4.20
2022-09-14T03:09:15.009Z,3.47
2022-09-14T03:11:43.166Z,3.90
2022-09-14T03:14:11.651Z,3.80
2022-09-14T03:16:39.842Z,3.80
2022-09-14T03:19:10.908Z,3.50
2022-09-14T03:21:39.532Z,3.57
2022-09-14T03:24:07.786Z,3.13
2022-09-14T03:26:36.990Z,3.43
2022-09-14T03:29:05.638Z,3.87
2022-09-14T03:31:34.064Z,3.70
2022-09-14T03:34:02.854Z,3.60
2022-09-14T03:36:32.517Z,3.43
2022-09-14T03:39:01.950Z,3.67
2022-09-14T03:41:30.356Z,3.43
2022-09-14T03:43:58.470Z,3.50
2022-09-14T03:46:26.870Z,3.40
2022-09-14T03:48:55.828Z,4.00
2022-09-14T03:51:24.218Z,3.40
2022-09-14T03:53:53.944Z,3.73
2022-09-14T03:56:22.922Z,3.70
2022-09-14T03:58:51.317Z,3.67
2022-09-14T04:01:20.355Z,4.00
2022-09-14T04:03:48.619Z,3.97
2022-09-14T04:06:17.176Z,4.20
2022-09-14T04:08:46.184Z,3.83
2022-09-14T04:11:17.155Z,3.90
2022-09-14T04:13:45.470Z,3.37
2022-09-14T04:16:14.011Z,4.00
2022-09-14T04:18:42.396Z,3.90
2022-09-14T04:21:13.852Z,3.87
2022-09-14T04:24:03.423Z,3.90
2022-09-14T04:26:32.297Z,4.30
2022-09-14T04:29:00.431Z,4.33
2022-09-14T04:31:28.943Z,3.87
2022-09-14T04:33:57.492Z,4.63
2022-09-14T04:36:28.514Z,4.47
2022-09-14T04:38:57.878Z,4.13
2022-09-14T04:41:26.042Z,4.90
2022-09-14T04:43:55.939Z,4.63
2022-09-14T04:46:24.794Z,4.60
2022-09-14T04:48:52.980Z,4.30
2022-09-14T04:51:22.797Z,5.00
2022-09-14T04:53:51.760Z,4.60
2022-09-14T04:56:20.346Z,4.97
2022-09-14T04:58:51.813Z,5.03
2022-09-14T05:01:22.493Z,5.00
2022-09-14T05:03:51.395Z,5.27
2022-09-14T05:06:20.345Z,4.90
2022-09-14T05:08:48.931Z,4.67
2022-09-14T05:11:18.528Z,5.27
2022-09-14T05:13:49.909Z,5.33
2022-09-14T05:16:19.312Z,5.40
2022-09-14T05:18:49.339Z,6.03
2022-09-14T05:21:19.383Z,5.80
2022-09-14T05:23:47.730Z,5.63
2022-09-14T05:26:16.177Z,6.23
2022-09-14T05:28:44.381Z,5.73
2022-09-14T05:31:13.272Z,5.47
2022-09-14T05:33:41.636Z,5.93
2022-09-14T05:36:12.052Z,5.80
2022-09-14T05:38:40.998Z,6.97
2022-09-14T05:41:09.872Z,5.87
2022-09-14T05:43:38.123Z,5.03
2022-09-14T05:46:07.403Z,5.07
2022-09-14T05:48:35.986Z,4.60
2022-09-14T05:51:04.975Z,4.70
2022-09-14T05:53:34.845Z,4.67
2022-09-14T05:56:03.716Z,4.90
2022-09-14T05:58:31.944Z,5.33
2022-09-14T06:01:00.085Z,5.03
2022-09-14T06:03:28.209Z,5.50
2022-09-14T06:05:59.044Z,5.40
2022-09-14T06:08:27.117Z,5.00
2022-09-14T06:10:56.694Z,5.57
2022-09-14T06:13:24.869Z,5.00
2022-09-14T06:15:53.024Z,5.33
2022-09-14T06:18:21.147Z,5.20
2022-09-14T06:20:52.671Z,4.97
2022-09-14T06:23:20.793Z,4.80
2022-09-14T06:25:48.896Z,5.20
2022-09-14T06:28:18.393Z,5.20
2022-09-14T06:30:46.576Z,5.23
2022-09-14T06:33:14.753Z,5.07
2022-09-14T06:35:42.907Z,5.07
2022-09-14T06:38:11.125Z,5.10
2022-09-14T06:40:39.384Z,5.00
2022-09-14T06:43:07.457Z,5.37
2022-09-14T06:45:37.462Z,5.40
2022-09-14T06:48:05.799Z,5.37
2022-09-14T06:50:33.876Z,5.40
2022-09-14T06:53:01.957Z,5.43
2022-09-14T06:55:30.134Z,6.10
2022-09-14T06:57:58.241Z,6.40
2022-09-14T07:00:26.360Z,5.53
2022-09-14T07:02:56.016Z,5.30
2022-09-14T07:05:24.297Z,5.50
2022-09-14T07:07:53.555Z,5.00
2022-09-14T07:10:21.677Z,5.27
2022-09-14T07:12:49.838Z,4.83
2022-09-14T07:15:18.421Z,4.63
2022-09-14T07:17:47.216Z,5.43
2022-09-14T07:20:17.008Z,5.40
2022-09-14T07:22:45.259Z,5.33
2022-09-14T07:25:13.502Z,4.50
2022-09-14T07:27:41.657Z,5.30
2022-09-14T07:30:10.748Z,4.87
2022-09-14T07:32:38.854Z,5.43
2022-09-14T07:35:07.495Z,5.27
2022-09-14T07:37:36.936Z,4.67
2022-09-14T07:40:05.481Z,4.83
2022-09-14T07:42:33.590Z,4.83
2022-09-14T07:45:01.685Z,4.80
2022-09-14T07:47:29.749Z,4.60
2022-09-14T07:49:57.932Z,4.47
2022-09-14T07:52:26.280Z,4.87
2022-09-14T07:54:56.183Z,5.00
2022-09-14T07:57:45.553Z,5.43
2022-09-14T08:00:13.399Z,4.77
2022-09-14T08:02:41.681Z,5.50
2022-09-14T08:05:11.263Z,5.30
2022-09-14T08:07:39.360Z,5.23
2022-09-14T08:10:10.113Z,5.13
2022-09-14T08:12:38.200Z,5.17
2022-09-14T08:15:07.527Z,5.00
2022-09-14T08:17:35.625Z,5.00
2022-09-14T08:20:04.539Z,4.43
2022-09-14T08:22:32.638Z,5.27
2022-09-14T08:25:00.783Z,5.27
2022-09-14T08:27:30.180Z,5.07
2022-09-14T08:29:58.325Z,6.17
2022-09-14T08:32:26.443Z,5.37
2022-09-14T08:34:54.505Z,6.40
2022-09-14T08:37:22.611Z,5.93
2022-09-14T08:39:51.825Z,5.53
2022-09-14T08:42:22.984Z,6.10
2022-09-14T08:44:54.672Z,7.43
2022-09-14T08:47:25.104Z,6.30
2022-09-14T08:49:55.736Z,6.03
2022-09-14T08:52:25.916Z,6.87
2022-09-14T08:54:55.711Z,6.70
2022-09-14T08:57:30.140Z,6.23
2022-09-14T09:00:06.138Z,6.50
2022-09-14T09:03:19.591Z,6.17
2022-09-14T09:05:50.140Z,5.90
2022-09-14T09:08:21.052Z,5.40
2022-09-14T09:10:49.248Z,5.80
2022-09-14T09:13:21.760Z,5.53
2022-09-14T09:15:52.086Z,5.97
2022-09-14T09:18:23.999Z,5.10
2022-09-14T09:20:53.124Z,5.37
2022-09-14T09:23:21.832Z,5.13
2022-09-14T09:25:55.848Z,5.70
2022-09-14T09:28:24.606Z,4.97
2022-09-14T09:30:54.446Z,4.70
2022-09-14T09:33:23.269Z,4.90
2022-09-14T09:35:51.559Z,4.33
2022-09-14T09:38:24.862Z,5.27
2022-09-14T09:40:55.454Z,6.33
2022-09-14T09:43:38.905Z,5.30
2022-09-14T09:46:13.491Z,5.80
2022-09-14T09:48:43.114Z,6.37
2022-09-14T09:51:13.765Z,5.60
2022-09-14T09:53:48.218Z,6.70
2022-09-14T09:56:21.192Z,7.43
2022-09-14T09:58:51.821Z,6.33
2022-09-14T10:01:24.264Z,5.87
2022-09-14T10:04:06.956Z,5.40
2022-09-14T10:06:42.266Z,6.23
2022-09-14T10:09:14.638Z,5.10
2022-09-14T10:11:43.453Z,5.17
2022-09-14T10:14:23.442Z,5.27
2022-09-14T10:16:52.981Z,5.70
2022-09-14T10:19:23.656Z,5.30
2022-09-14T10:22:04.560Z,5.20
2022-09-14T10:24:33.594Z,5.37
2022-09-14T10:27:01.811Z,4.97
2022-09-14T10:29:40.681Z,5.13
2022-09-14T10:32:17.910Z,4.67
2022-09-14T10:34:46.274Z,5.07
2022-09-14T10:37:35.256Z,4.90
2022-09-14T10:40:14.936Z,4.70
2022-09-14T10:42:51.304Z,4.83
2022-09-14T10:45:20.766Z,5.13
2022-09-14T10:48:03.863Z,5.00
2022-09-14T10:50:41.490Z,4.80
2022-09-14T10:53:15.984Z,4.80
2022-09-14T10:55:47.261Z,4.93
2022-09-14T10:58:25.538Z,5.50
2022-09-14T11:00:59.463Z,4.40
2022-09-14T11:03:34.864Z,4.37
2022-09-14T11:06:09.418Z,5.00
2022-09-14T11:08:40.663Z,5.17
2022-09-14T11:11:25.415Z,5.73
2022-09-14T11:13:59.738Z,5.53
2022-09-14T11:16:47.901Z,5.63
2022-09-14T11:19:21.184Z,5.23
2022-09-14T11:21:51.435Z,5.33
2022-09-14T11:24:22.706Z,5.20
2022-09-14T11:26:56.113Z,5.23
2022-09-14T11:29:25.888Z,5.87
2022-09-14T11:32:19.401Z,5.93
2022-09-14T11:34:47.842Z,5.60
2022-09-14T11:37:17.782Z,5.60
2022-09-14T11:39:47.739Z,5.53
2022-09-14T11:42:17.707Z,4.90
2022-09-14T11:44:47.146Z,6.40
2022-09-14T11:47:18.162Z,5.90
2022-09-14T11:49:55.859Z,5.63
2022-09-14T11:52:25.181Z,5.50
2022-09-14T11:54:53.437Z,5.50
2022-09-14T11:57:22.388Z,5.20
2022-09-14T11:59:52.450Z,5.67
2022-09-14T12:03:13.454Z,5.87
2022-09-14T12:05:44.801Z,4.73
2022-09-14T12:08:37.065Z,5.60
2022-09-14T12:11:32.027Z,5.70
2022-09-14T12:14:14.898Z,5.07
2022-09-14T12:17:22.585Z,6.33
2022-09-14T12:19:55.629Z,5.77
2022-09-14T12:22:31.408Z,5.90
2022-09-14T12:25:01.921Z,6.53
2022-09-14T12:27:32.356Z,5.80
2022-09-14T12:30:01.010Z,5.37
2022-09-14T12:32:40.330Z,5.90
2022-09-14T12:35:37.422Z,5.90
2022-09-14T12:38:39.198Z,5.47
2022-09-14T12:41:55.917Z,5.23
2022-09-14T12:44:37.539Z,5.53
2022-09-14T12:47:39.368Z,5.00
2022-09-14T12:50:19.124Z,5.37
2022-09-14T12:53:11.747Z,5.80
2022-09-14T12:55:50.698Z,6.17
2022-09-14T12:58:30.114Z,6.57
2022-09-14T13:01:18.670Z,5.43
2022-09-14T13:03:51.561Z,6.27
2022-09-14T13:06:19.781Z,6.33
2022-09-14T13:08:49.026Z,6.40
2022-09-14T13:11:22.428Z,5.50
2022-09-14T13:13:53.218Z,5.87
2022-09-14T13:16:31.945Z,6.43
2022-09-14T13:19:04.897Z,6.70
2022-09-14T13:21:33.274Z,5.60
2022-09-14T13:24:01.495Z,6.37
2022-09-14T13:26:31.667Z,6.27
2022-09-14T13:29:01.944Z,6.00
2022-09-14T13:31:32.614Z,6.40
2022-09-14T13:34:00.968Z,6.20
2022-09-14T13:36:31.852Z,7.03
2022-09-14T13:39:01.747Z,7.77
2022-09-14T13:41:30.727Z,6.67
2022-09-14T13:44:00.364Z,6.67
2022-09-14T13:46:28.855Z,6.53
2022-09-14T13:48:57.062Z,6.27
2022-09-14T13:51:27.429Z,6.80
2022-09-14T13:53:56.426Z,6.50
2022-09-14T13:56:31.383Z,7.13
2022-09-14T13:59:18.437Z,7.30
2022-09-14T14:01:53.786Z,6.90
2022-09-14T14:04:25.676Z,6.97
2022-09-14T14:07:00.690Z,7.27
2022-09-14T14:09:42.688Z,7.73
2022-09-14T14:12:12.310Z,7.90
2022-09-14T14:14:41.922Z,7.53
2022-09-14T14:17:33.092Z,7.43
2022-09-14T14:20:01.739Z,7.33
2022-09-14T14:22:31.014Z,7.17
2022-09-14T14:25:13.325Z,7.53
2022-09-14T14:27:44.203Z,6.60
2022-09-14T14:30:16.729Z,6.57
2022-09-14T14:32:44.840Z,7.17
2022-09-14T14:35:16.112Z,7.07
2022-09-14T14:37:44.182Z,6.33
2022-09-14T14:40:13.101Z,6.40
2022-09-14T14:42:41.422Z,6.60
2022-09-14T14:45:15.151Z,5.20
2022-09-14T14:47:43.244Z,5.70
2022-09-14T14:50:15.252Z,5.83
2022-09-14T14:52:43.498Z,6.07
2022-09-14T14:55:11.745Z,5.37
2022-09-14T14:57:39.955Z,4.80
2022-09-14T15:00:13.278Z,5.70
2022-09-14T15:02:43.043Z,5.70
2022-09-14T15:05:11.632Z,5.37
2022-09-14T15:07:39.782Z,5.90
2022-09-14T15:10:09.438Z,5.53
2022-09-14T15:12:37.631Z,5.97
2022-09-14T15:15:06.960Z,5.70
2022-09-14T15:17:35.221Z,6.63
2022-09-14T15:20:05.434Z,6.10
2022-09-14T15:22:33.506Z,6.03
2022-09-14T15:25:01.874Z,6.77
2022-09-14T15:27:29.954Z,6.20
2022-09-14T15:29:58.236Z,7.07
2022-09-14T15:32:26.468Z,6.07
2022-09-14T15:34:55.137Z,7.10
2022-09-14T15:37:24.912Z,7.50
2022-09-14T15:39:53.051Z,7.43
2022-09-14T15:42:21.344Z,7.73
2022-09-14T15:44:49.856Z,7.53
2022-09-14T15:47:18.165Z,8.17
2022-09-14T15:49:46.782Z,8.27
2022-09-14T15:52:14.959Z,8.97
2022-09-14T15:54:44.537Z,8.80
2022-09-14T15:57:13.431Z,9.57
2022-09-14T15:59:41.694Z,8.80
2022-09-14T16:02:12.063Z,8.73
2022-09-14T16:04:40.805Z,8.47
2022-09-14T16:07:10.769Z,9.77
2022-09-14T16:09:39.634Z,10.53
2022-09-14T16:12:09.682Z,9.10
2022-09-14T16:14:38.305Z,9.43
2022-09-14T16:17:06.756Z,8.13
2022-09-14T16:19:34.890Z,8.47
2022-09-14T16:22:03.261Z,7.63
2022-09-14T16:24:32.417Z,8.20
2022-09-14T16:27:00.970Z,6.80
2022-09-14T16:29:30.526Z,6.87
2022-09-14T16:31:58.875Z,6.83
2022-09-14T16:34:28.699Z,6.17
2022-09-14T16:36:58.802Z,5.53
2022-09-14T16:39:28.801Z,5.17
2022-09-14T16:41:57.421Z,4.50
2022-09-14T16:44:26.720Z,4.70
2022-09-14T16:46:57.839Z,3.53
2022-09-14T16:49:27.766Z,3.83
2022-09-14T16:51:56.568Z,3.93
2022-09-14T16:54:25.871Z,3.77
2022-09-14T16:56:56.881Z,3.97
2022-09-14T16:59:25.186Z,4.07
2022-09-14T17:01:55.015Z,4.10
2022-09-14T17:04:25.742Z,4.50
2022-09-14T17:06:56.012Z,4.77
2022-09-14T17:09:31.672Z,5.03
2022-09-14T17:11:59.882Z,5.00
2022-09-14T17:14:28.908Z,6.00
2022-09-14T17:16:57.034Z,5.60
2022-09-14T17:19:27.087Z,5.80
2022-09-14T17:21:55.317Z,6.33
2022-09-14T17:24:24.180Z,5.90
2022-09-14T17:26:52.857Z,5.97
2022-09-14T17:29:21.258Z,7.07
2022-09-14T17:31:50.943Z,7.60
2022-09-14T17:34:19.168Z,6.87
2022-09-14T17:36:48.640Z,7.10
2022-09-14T17:39:17.192Z,7.80
2022-09-14T17:41:45.651Z,7.10
2022-09-14T17:44:14.586Z,7.90
2022-09-14T17:46:52.914Z,7.40
2022-09-14T17:49:22.001Z,8.23
2022-09-14T17:51:51.568Z,7.50
2022-09-14T17:54:19.959Z,7.50
2022-09-14T17:56:48.747Z,8.30
2022-09-14T17:59:20.500Z,8.43
2022-09-14T18:01:48.951Z,8.03
2022-09-14T18:04:17.310Z,8.33
2022-09-14T18:06:46.207Z,8.40
2022-09-14T18:09:17.027Z,8.43
2022-09-14T18:11:45.367Z,7.83
2022-09-14T18:14:14.006Z,7.97
2022-09-14T18:16:42.346Z,7.73
2022-09-14T18:19:10.577Z,8.63
2022-09-14T18:21:38.880Z,7.57
2022-09-14T18:24:07.420Z,8.30
2022-09-14T18:26:38.276Z,8.93
2022-09-14T18:29:06.878Z,9.63
2022-09-14T18:31:35.084Z,9.70
2022-09-14T18:34:03.380Z,10.30
2022-09-14T18:36:32.064Z,11.57
2022-09-14T18:39:00.659Z,10.87
2022-09-14T18:41:31.357Z,11.10
2022-09-14T18:44:01.348Z,10.63
2022-09-14T18:46:29.546Z,10.10
2022-09-14T18:48:58.885Z,9.43
2022-09-14T18:51:27.374Z,10.13
2022-09-14T18:53:58.543Z,10.20
2022-09-14T18:56:27.009Z,10.23
2022-09-14T18:58:55.107Z,10.30
2022-09-14T19:01:25.026Z,10.77
2022-09-14T19:03:53.865Z,9.93
2022-09-14T19:06:22.058Z,10.57
2022-09-14T19:08:50.609Z,11.43
2022-09-14T19:11:19.838Z,10.37
2022-09-14T19:13:48.342Z,11.17
2022-09-14T19:16:18.330Z,11.23
2022-09-14T19:18:48.669Z,10.77
2022-09-14T19:21:21.635Z,11.73
2022-09-14T19:23:57.207Z,11.13
2022-09-14T19:26:25.392Z,10.60
2022-09-14T19:28:53.901Z,12.20
2022-09-14T19:31:23.504Z,13.40
2022-09-14T19:33:53.487Z,13.73
2022-09-14T19:36:22.940Z,14.93
2022-09-14T19:38:51.894Z,14.17
2022-09-14T19:41:20.217Z,12.23
2022-09-14T19:43:48.476Z,13.80
2022-09-14T19:46:18.289Z,14.43
2022-09-14T19:48:46.968Z,14.73
2022-09-14T19:51:17.773Z,14.07
2022-09-14T19:53:47.426Z,14.57
2022-09-14T19:56:16.741Z,15.00
2022-09-14T19:58:46.881Z,15.17
2022-09-14T20:01:15.501Z,15.03
2022-09-14T20:03:44.787Z,14.63
2022-09-14T20:06:19.456Z,14.60
2022-09-14T20:08:49.282Z,13.73
2022-09-14T20:11:20.078Z,13.33
2022-09-14T20:13:48.983Z,13.00
2022-09-14T20:16:18.621Z,12.77
2022-09-14T20:18:47.389Z,12.87
2022-09-14T20:21:17.935Z,12.83
2022-09-14T20:24:11.660Z,12.53
2022-09-14T20:26:35.905Z,12.57
2022-09-14T20:29:04.103Z,12.70
2022-09-14T20:31:32.570Z,14.03
2022-09-14T20:34:00.860Z,12.60
2022-09-14T20:36:29.873Z,11.47
2022-09-14T20:38:59.289Z,13.77
2022-09-14T20:41:28.924Z,13.30
2022-09-14T20:43:58.804Z,13.00
2022-09-14T20:46:27.752Z,13.87
2022-09-14T20:48:56.048Z,14.73
2022-09-14T20:51:25.222Z,14.90
2022-09-14T20:53:53.472Z,14.63
2022-09-14T20:56:22.293Z,13.20
2022-09-14T20:58:50.715Z,14.30
2022-09-14T21:01:22.255Z,13.77
2022-09-14T21:03:51.063Z,13.97
2022-09-14T21:06:20.915Z,14.20
2022-09-14T21:08:49.295Z,15.17
2022-09-14T21:11:19.788Z,14.17
2022-09-14T21:13:48.234Z,14.37
2022-09-14T21:16:17.428Z,13.90
2022-09-14T21:18:47.850Z,13.40
2022-09-14T21:21:16.791Z,14.17
2022-09-14T21:23:45.223Z,13.73
2022-09-14T21:26:13.930Z,13.50
2022-09-14T21:28:42.671Z,15.37
2022-09-14T21:31:12.691Z,14.83
2022-09-14T21:33:42.288Z,14.13
2022-09-14T21:36:13.258Z,14.87
2022-09-14T21:38:41.663Z,13.00
2022-09-14T21:41:10.622Z,13.17
2022-09-14T21:43:39.366Z,13.10
2022-09-14T21:46:07.912Z,13.40
2022-09-14T21:48:36.440Z,13.20
2022-09-14T21:51:08.917Z,12.70
2022-09-14T21:53:38.615Z,11.77
2022-09-14T21:56:07.265Z,12.10
2022-09-14T21:58:36.763Z,12.13
2022-09-14T22:01:05.148Z,11.83
2022-09-14T22:03:33.438Z,12.10
2022-09-14T22:06:02.825Z,11.93
2022-09-14T22:08:32.553Z,13.00
2022-09-14T22:11:05.367Z,12.33
2022-09-14T22:13:33.644Z,12.90
2022-09-14T22:16:08.054Z,12.73
2022-09-14T22:18:36.825Z,12.20
2022-09-14T22:21:05.509Z,12.27
2022-09-14T22:23:34.028Z,13.03
2022-09-14T22:26:09.351Z,13.87
2022-09-14T22:28:39.594Z,13.87
2022-09-14T22:31:07.970Z,14.17
2022-09-14T22:33:36.276Z,13.50
2022-09-14T22:36:04.796Z,12.90
2022-09-14T22:38:34.813Z,13.17
2022-09-14T22:41:04.614Z,14.47
2022-09-14T22:43:34.700Z,13.23
2022-09-14T22:46:02.904Z,13.67
2022-09-14T22:48:31.232Z,14.10
2022-09-14T22:50:59.695Z,13.57
2022-09-14T22:53:28.062Z,14.80
2022-09-14T22:55:56.681Z,14.10
2022-09-14T22:58:26.067Z,13.47
2022-09-14T23:00:55.639Z,14.63
2022-09-14T23:03:23.860Z,13.07
2022-09-14T23:05:53.159Z,12.73
2022-09-14T23:08:21.455Z,14.47
2022-09-14T23:10:50.234Z,14.50
2022-09-14T23:13:18.566Z,15.57
2022-09-14T23:15:46.769Z,14.57
2022-09-14T23:18:16.231Z,14.90
2022-09-14T23:20:45.025Z,15.47
2022-09-14T23:23:13.327Z,14.63
2022-09-14T23:25:42.136Z,15.83
2022-09-14T23:28:11.888Z,15.00
2022-09-14T23:30:40.508Z,13.73
2022-09-14T23:33:08.770Z,15.50
2022-09-14T23:35:38.430Z,15.70
2022-09-14T23:38:06.776Z,16.07
2022-09-14T23:40:35.104Z,16.73
2022-09-14T23:43:03.397Z,17.60
2022-09-14T23:45:31.430Z,17.37
2022-09-14T23:47:59.576Z,18.93
2022-09-14T23:50:28.567Z,17.23
2022-09-14T23:52:58.171Z,16.83
2022-09-14T23:55:26.366Z,18.23
2022-09-14T23:57:54.514Z,17.47
